Time;durP1;ratioP1;P1;durP2;ratioP2;P2;SDS_P1;SDS_P2;PMS_P1;PMS_P2;Temp;Humidity;BMP_temperature;BMP_pressure;BME280_temperature;BME280_humidity;BME280_pressure;Samples;Min_cycle;Max_cycle;Signal;HPM_P1;HPM_P2
2021/03/04 00:01:42;;;;;;;31.02;6.35;;;;;;;1.64;100.00;100873.00;5073730;28;20047;-77
2021/03/04 00:04:46;;;;;;;36.00;6.80;;;;;;;1.62;100.00;100883.59;5073707;28;20389;-77
2021/03/04 00:07:50;;;;;;;49.13;9.63;;;;;;;1.58;100.00;100882.81;5073715;28;20048;-77
2021/03/04 00:10:53;;;;;;;20.73;5.25;;;;;;;1.58;100.00;100878.09;5073577;28;20048;-77
2021/03/04 00:13:57;;;;;;;39.38;8.50;;;;;;;1.55;100.00;100887.09;5073506;28;20523;-77
2021/03/04 00:17:00;;;;;;;47.47;9.68;;;;;;;1.54;100.00;100886.31;5073974;28;20055;-77
2021/03/04 00:20:07;;;;;;;17.92;5.32;;;;;;;1.51;100.00;100883.56;5061803;28;20408;-77
2021/03/04 00:23:11;;;;;;;49.35;8.45;;;;;;;1.48;100.00;100882.38;5061209;28;20591;-77
2021/03/04 00:26:15;;;;;;;39.15;6.20;;;;;;;1.48;100.00;100887.09;5060918;28;20571;-77
2021/03/04 00:29:18;;;;;;;23.17;6.97;;;;;;;1.45;100.00;100887.88;5060969;28;20047;-76
2021/03/04 00:32:22;;;;;;;33.35;7.70;;;;;;;1.43;100.00;100885.50;5072958;28;20052;-77
2021/03/04 00:35:26;;;;;;;44.97;7.57;;;;;;;1.37;100.00;100886.28;5073333;28;20047;-76
2021/03/04 00:38:29;;;;;;;37.55;7.53;;;;;;;1.34;100.00;100876.09;5060745;28;20051;-77
2021/03/04 00:41:33;;;;;;;38.53;7.10;;;;;;;1.32;100.00;100873.72;5060442;28;20071;-76
2021/03/04 00:44:37;;;;;;;32.67;7.03;;;;;;;1.30;100.00;100870.56;5072287;28;20162;-77
2021/03/04 00:47:41;;;;;;;32.88;7.57;;;;;;;1.28;100.00;100872.91;5061284;28;20434;-77
2021/03/04 00:50:45;;;;;;;29.63;6.82;;;;;;;1.26;100.00;100867.03;5072349;28;20047;-77
2021/03/04 00:53:49;;;;;;;38.17;5.85;;;;;;;1.23;100.00;100865.09;5072983;28;20040;-76
2021/03/04 00:56:52;;;;;;;27.65;6.70;;;;;;;1.24;100.00;100876.81;5072602;28;20055;-77
2021/03/04 00:59:55;;;;;;;38.83;6.30;;;;;;;1.25;100.00;100870.97;5060491;28;20043;-76
2021/03/04 01:02:59;;;;;;;61.92;8.25;;;;;;;1.21;100.00;100872.88;5060278;28;20051;-76
2021/03/04 01:06:04;;;;;;;26.55;5.90;;;;;;;1.21;100.00;100872.88;5072639;28;20501;-76
2021/03/04 01:09:08;;;;;;;44.50;6.88;;;;;;;1.21;100.00;100870.16;5060202;28;20064;-76
2021/03/04 01:12:11;;;;;;;53.53;8.25;;;;;;;1.20;100.00;100868.59;5059902;28;20083;-77
2021/03/04 01:15:17;;;;;;;33.75;7.00;;;;;;;1.19;100.00;100869.75;5071651;28;20051;-77
2021/03/04 01:18:22;;;;;;;34.78;6.32;;;;;;;1.20;100.00;100874.06;5059582;28;20115;-76
2021/03/04 01:21:25;;;;;;;20.33;6.80;;;;;;;1.19;100.00;100864.25;5059773;28;20048;-76
2021/03/04 01:24:28;;;;;;;31.33;8.00;;;;;;;1.22;100.00;100866.25;5060122;28;20098;-76
2021/03/04 01:27:32;;;;;;;25.90;5.90;;;;;;;1.23;100.00;100856.84;5059728;28;20051;-76
2021/03/04 01:30:35;;;;;;;36.15;6.55;;;;;;;1.25;100.00;100861.94;5059685;28;20051;-76
2021/03/04 01:33:39;;;;;;;22.13;7.22;;;;;;;1.25;100.00;100862.75;5072039;28;20079;-76
2021/03/04 01:36:43;;;;;;;23.88;7.50;;;;;;;1.25;100.00;100853.72;5072301;28;20047;-76
2021/03/04 01:39:46;;;;;;;39.95;5.93;;;;;;;1.24;100.00;100850.19;5060051;28;20051;-76
2021/03/04 01:42:50;;;;;;;28.88;7.70;;;;;;;1.25;100.00;100851.75;5059633;28;20043;-76
2021/03/04 01:45:54;;;;;;;31.70;7.07;;;;;;;1.27;100.00;100857.66;5059594;28;20055;-77
2021/03/04 01:48:57;;;;;;;38.05;6.07;;;;;;;1.26;100.00;100864.28;5072405;28;20055;-77
2021/03/04 01:52:01;;;;;;;33.88;8.23;;;;;;;1.28;100.00;100856.47;5058991;28;20044;-76
2021/03/04 01:55:06;;;;;;;26.23;4.90;;;;;;;1.30;100.00;100859.59;5071968;28;20051;-76
2021/03/04 01:58:10;;;;;;;33.25;5.10;;;;;;;1.31;100.00;100857.66;5063284;28;20049;-76
2021/03/04 02:01:14;;;;;;;50.88;8.18;;;;;;;1.34;100.00;100851.38;5063772;28;20408;-76
2021/03/04 02:04:17;;;;;;;25.38;8.35;;;;;;;1.33;100.00;100842.38;5063594;28;20059;-76
2021/03/04 02:07:45;;;;;;;32.80;7.60;;;;;;;1.34;100.00;100843.16;5063790;28;20047;-77
2021/03/04 02:10:54;;;;;;;19.05;5.05;;;;;;;1.35;100.00;100845.50;5063374;28;20048;-76
2021/03/04 02:14:10;;;;;;;44.83;5.78;;;;;;;1.36;100.00;100835.31;5063391;28;20059;-76
2021/03/04 02:17:17;;;;;;;28.45;5.20;;;;;;;1.40;100.00;100838.84;5075360;28;20064;-77
2021/03/04 02:20:23;;;;;;;37.65;7.03;;;;;;;1.39;100.00;100832.56;5063247;28;20056;-76
2021/03/04 02:23:51;;;;;;;35.13;5.45;;;;;;;1.39;100.00;100827.09;5075714;28;20063;-76
2021/03/04 02:27:00;;;;;;;27.13;5.22;;;;;;;1.39;100.00;100824.34;5063101;28;20055;-76
2021/03/04 02:30:11;;;;;;;22.70;6.35;;;;;;;1.41;100.00;100821.19;5063139;28;20052;-77
2021/03/04 02:33:19;;;;;;;11.45;4.63;;;;;;;1.41;100.00;100821.19;5063027;28;20056;-76
2021/03/04 02:36:25;;;;;;;38.33;5.80;;;;;;;1.42;100.00;100812.59;5075608;28;20054;-77
2021/03/04 02:39:30;;;;;;;26.92;6.43;;;;;;;1.43;100.00;100816.91;5075809;28;20051;-77
2021/03/04 02:42:34;;;;;;;38.55;5.15;;;;;;;1.44;100.00;100813.00;5075398;28;20047;-77
2021/03/04 02:45:38;;;;;;;22.83;5.28;;;;;;;1.47;100.00;100811.44;5062727;28;20489;-76
2021/03/04 02:48:42;;;;;;;23.42;6.05;;;;;;;1.47;100.00;100805.94;5074923;28;20055;-77
2021/03/04 02:51:46;;;;;;;27.65;5.63;;;;;;;1.49;100.00;100807.09;5074874;28;20056;-77
2021/03/04 02:54:50;;;;;;;26.60;4.32;;;;;;;1.50;100.00;100805.94;5061233;28;20052;-76
2021/03/04 02:57:54;;;;;;;32.72;6.40;;;;;;;1.53;100.00;100802.41;5062798;28;20047;-77
2021/03/04 03:00:59;;;;;;;40.40;8.07;;;;;;;1.54;100.00;100803.19;5074338;28;20067;-76
2021/03/04 03:04:04;;;;;;;17.58;5.80;;;;;;;1.55;100.00;100804.75;5073573;28;20044;-76
2021/03/04 03:07:09;;;;;;;38.47;6.00;;;;;;;1.56;100.00;100800.06;5062058;28;20048;-77
2021/03/04 03:10:14;;;;;;;39.28;6.00;;;;;;;1.56;100.00;100795.34;5074685;28;20043;-77
2021/03/04 03:13:21;;;;;;;19.63;5.00;;;;;;;1.59;100.00;100796.50;5062344;28;20508;-79
2021/03/04 03:16:25;;;;;;;27.60;7.18;;;;;;;1.61;100.00;100788.66;5062190;28;20056;-77
2021/03/04 03:19:31;;;;;;;24.48;6.03;;;;;;;1.61;100.00;100778.47;5062130;28;20063;-77
2021/03/04 03:22:35;;;;;;;10.48;3.22;;;;;;;1.63;100.00;100780.81;5061857;28;20048;-76
2021/03/04 03:25:38;;;;;;;26.98;5.38;;;;;;;1.63;100.00;100778.06;5074541;28;20048;-76
2021/03/04 03:28:42;;;;;;;20.70;5.35;;;;;;;1.64;100.00;100774.97;5074184;28;20048;-77
2021/03/04 03:31:49;;;;;;;35.90;5.32;;;;;;;1.66;100.00;100771.81;5062253;28;20051;-77
2021/03/04 03:34:53;;;;;;;11.18;4.15;;;;;;;1.66;100.00;100778.09;5061970;28;20055;-76
2021/03/04 03:37:58;;;;;;;24.40;6.20;;;;;;;1.68;100.00;100780.44;5074445;28;20051;-77
2021/03/04 03:41:03;;;;;;;19.63;4.55;;;;;;;1.66;100.00;100769.06;5074198;28;20048;-77
2021/03/04 03:44:08;;;;;;;15.10;4.97;;;;;;;1.67;100.00;100765.91;5074151;28;20047;-77
2021/03/04 03:47:13;;;;;;;21.17;4.47;;;;;;;1.70;100.00;100767.09;5074219;28;20059;-77
2021/03/04 03:50:17;;;;;;;21.42;4.45;;;;;;;1.71;100.00;100768.69;5061962;28;20095;-77
2021/03/04 03:53:22;;;;;;;29.30;5.55;;;;;;;1.72;100.00;100775.72;5061589;28;20051;-77
2021/03/04 03:56:28;;;;;;;18.77;4.13;;;;;;;1.73;100.00;100771.81;5073662;28;20428;-76
2021/03/04 03:59:32;;;;;;;24.45;5.28;;;;;;;1.75;100.00;100785.94;5061328;28;20409;-77
2021/03/04 04:02:37;;;;;;;22.13;5.43;;;;;;;1.74;100.00;100779.66;5061383;28;20052;-77
2021/03/04 04:05:41;;;;;;;28.10;6.70;;;;;;;1.74;100.00;100785.16;5073843;28;20420;-77
2021/03/04 04:08:45;;;;;;;8.35;3.72;;;;;;;1.72;100.00;100782.00;5061268;28;20047;-77
2021/03/04 04:11:48;;;;;;;27.55;6.20;;;;;;;1.72;100.00;100786.72;5061190;28;20107;-77
2021/03/04 04:14:52;;;;;;;19.02;5.55;;;;;;;1.71;100.00;100785.91;5073589;28;20492;-77
2021/03/04 04:18:02;;;;;;;25.25;5.13;;;;;;;1.72;100.00;100783.97;5073160;28;20067;-77
2021/03/04 04:21:05;;;;;;;17.77;3.65;;;;;;;1.74;100.00;100789.84;5073014;28;20048;-77
2021/03/04 04:24:10;;;;;;;14.20;3.38;;;;;;;1.70;100.00;100776.13;5073385;28;20055;-77
2021/03/04 04:27:13;;;;;;;15.57;4.70;;;;;;;1.71;100.00;100785.91;5073188;28;20051;-77
2021/03/04 04:30:19;;;;;;;11.57;2.92;;;;;;;1.73;100.00;100788.28;5060825;28;20508;-77
2021/03/04 04:33:23;;;;;;;17.20;6.93;;;;;;;1.74;100.00;100796.13;5072633;28;20052;-77
2021/03/04 04:36:27;;;;;;;28.30;4.93;;;;;;;1.75;100.00;100791.44;5072892;28;20393;-76
2021/03/04 04:39:30;;;;;;;14.13;3.30;;;;;;;1.73;100.00;100788.28;5072903;28;20052;-76
2021/03/04 04:42:35;;;;;;;19.55;5.65;;;;;;;1.74;100.00;100790.63;5072742;28;20500;-77
2021/03/04 04:45:38;;;;;;;4.63;2.58;;;;;;;1.78;100.00;100779.66;5072688;28;20048;-77
2021/03/04 04:48:43;;;;;;;15.43;4.47;;;;;;;1.78;100.00;100791.41;5072871;28;20502;-77
2021/03/04 04:51:47;;;;;;;24.58;5.13;;;;;;;1.78;100.00;100791.41;5072893;28;20397;-77
2021/03/04 04:54:50;;;;;;;14.68;3.90;;;;;;;1.80;100.00;100785.56;5060588;28;20051;-77
2021/03/04 04:57:53;;;;;;;10.88;4.00;;;;;;;1.81;100.00;100790.63;5059184;28;20512;-77
2021/03/04 05:00:57;;;;;;;4.85;1.65;;;;;;;1.80;100.00;100780.06;5073215;28;20044;-78
2021/03/04 05:04:00;;;;;;;12.60;3.85;;;;;;;1.82;100.00;100781.22;5061030;28;20043;-78
2021/03/04 05:07:03;;;;;;;19.38;4.20;;;;;;;1.79;100.00;100775.72;5072897;28;20058;-77
2021/03/04 05:10:09;;;;;;;10.63;2.70;;;;;;;1.79;100.00;100778.47;5060075;28;20405;-77
2021/03/04 05:13:13;;;;;;;20.98;4.03;;;;;;;1.79;100.00;100770.25;5060275;28;20051;-77
2021/03/04 05:16:16;;;;;;;9.73;3.22;;;;;;;1.81;100.00;100776.13;5059922;28;20055;-77
2021/03/04 05:19:19;;;;;;;24.60;5.30;;;;;;;1.82;100.00;100763.97;5072328;28;20072;-77
2021/03/04 05:22:23;;;;;;;12.70;3.35;;;;;;;1.86;100.00;100770.25;5072355;28;20044;-77
2021/03/04 05:25:26;;;;;;;13.70;4.63;;;;;;;1.84;100.00;100762.38;5059923;28;20543;-77
2021/03/04 05:28:29;;;;;;;22.02;3.42;;;;;;;1.83;100.00;100768.28;5072180;28;20420;-77
2021/03/04 05:31:34;;;;;;;9.88;3.30;;;;;;;1.86;100.00;100775.72;5072340;28;20051;-77
2021/03/04 05:34:37;;;;;;;10.75;4.15;;;;;;;1.83;100.00;100777.31;5059687;28;20432;-77
2021/03/04 05:37:41;;;;;;;10.40;4.50;;;;;;;1.84;100.00;100775.34;5059442;28;20051;-77
2021/03/04 05:40:44;;;;;;;28.77;4.45;;;;;;;1.83;100.00;100782.00;5059855;28;20051;-77
2021/03/04 05:43:49;;;;;;;14.10;2.90;;;;;;;1.80;100.00;100783.56;5072047;28;20039;-77
2021/03/04 05:46:53;;;;;;;26.77;5.57;;;;;;;1.79;100.00;100781.22;5059691;28;20056;-76
2021/03/04 05:50:06;;;;;;;10.43;3.42;;;;;;;1.79;100.00;100781.22;5072104;28;20051;-77
2021/03/04 05:53:12;;;;;;;21.77;3.60;;;;;;;1.79;100.00;100794.94;5059648;28;20056;-77
2021/03/04 05:56:17;;;;;;;11.45;3.20;;;;;;;1.80;100.00;100796.53;5059303;28;20055;-77
2021/03/04 05:59:22;;;;;;;8.30;2.95;;;;;;;1.78;100.00;100785.13;5059553;28;20051;-77
2021/03/04 06:02:26;;;;;;;21.80;2.85;;;;;;;1.78;100.00;100796.13;5059466;28;20044;-77
2021/03/04 06:05:29;;;;;;;22.30;4.32;;;;;;;1.79;100.00;100783.97;5071690;28;20059;-76
2021/03/04 06:08:34;;;;;;;17.95;3.15;;;;;;;1.79;100.00;100792.22;5059491;28;20357;-77
2021/03/04 06:11:37;;;;;;;21.00;3.88;;;;;;;1.79;100.00;100781.22;5059479;28;20052;-77
2021/03/04 06:14:41;;;;;;;27.33;5.78;;;;;;;1.79;100.00;100789.47;5071260;28;20048;-77
2021/03/04 06:17:59;;;;;;;18.48;4.50;;;;;;;1.78;100.00;100796.13;5073359;28;20064;-76
2021/03/04 06:21:03;;;;;;;18.63;4.72;;;;;;;1.76;100.00;100798.47;5059504;28;20067;-77
2021/03/04 06:24:13;;;;;;;20.80;4.60;;;;;;;1.75;100.00;100796.91;5059387;28;20051;-77
2021/03/04 06:27:30;;;;;;;14.13;3.95;;;;;;;1.75;100.00;100797.72;5071110;28;20067;-77
2021/03/04 06:30:39;;;;;;;29.00;4.20;;;;;;;1.75;100.00;100791.44;5059162;28;20060;-77
2021/03/04 06:33:42;;;;;;;12.65;3.38;;;;;;;1.72;100.00;100793.00;5072028;28;20154;-79
2021/03/04 06:37:12;;;;;;;7.05;3.47;;;;;;;1.74;100.00;100789.84;5059486;28;20052;-79
2021/03/04 06:40:15;;;;;;;14.95;2.28;;;;;;;1.73;100.00;100796.53;5056630;28;20039;-79
2021/03/04 06:43:29;;;;;;;12.98;3.38;;;;;;;1.76;100.00;100801.22;5072032;28;20513;-77
2021/03/04 06:46:46;;;;;;;17.02;3.35;;;;;;;1.75;100.00;100794.19;5075977;28;20043;-78
2021/03/04 06:49:50;;;;;;;16.35;4.95;;;;;;;1.76;100.00;100798.47;5063591;28;20051;-77
2021/03/04 06:52:53;;;;;;;28.63;4.70;;;;;;;1.77;100.00;100800.06;5075822;28;20397;-78
2021/03/04 06:56:00;;;;;;;25.92;5.30;;;;;;;1.75;100.00;100803.19;5063442;28;20051;-79
2021/03/04 06:59:03;;;;;;;30.73;6.63;;;;;;;1.76;100.00;100793.78;5063377;28;20048;-80
2021/03/04 07:02:08;;;;;;;8.82;3.92;;;;;;;1.76;100.00;100799.25;5075501;28;20401;-80
2021/03/04 07:05:12;;;;;;;10.50;3.58;;;;;;;1.80;100.00;100802.03;5063438;28;20056;-79
2021/03/04 07:08:16;;;;;;;20.42;2.97;;;;;;;1.79;100.00;100803.19;5075607;28;20055;-79
2021/03/04 07:11:24;;;;;;;14.48;2.88;;;;;;;1.80;100.00;100804.78;5063874;28;20048;-77
2021/03/04 07:14:30;;;;;;;19.73;4.57;;;;;;;1.82;100.00;100807.91;5075219;28;20047;-76
2021/03/04 07:17:33;;;;;;;16.65;4.25;;;;;;;1.83;100.00;100809.47;5074521;28;20063;-77
2021/03/04 07:20:38;;;;;;;8.73;2.53;;;;;;;1.86;100.00;100809.47;5061569;28;20043;-76
2021/03/04 07:23:44;;;;;;;11.75;2.97;;;;;;;1.88;100.00;100806.34;5075256;28;20492;-76
2021/03/04 07:26:49;;;;;;;8.43;2.85;;;;;;;1.94;100.00;100804.75;5075326;28;20063;-77
2021/03/04 07:29:53;;;;;;;20.83;4.32;;;;;;;1.94;100.00;100815.75;5075226;28;20103;-77
2021/03/04 07:32:56;;;;;;;19.25;3.42;;;;;;;1.97;100.00;100810.22;5062666;28;20389;-76
2021/03/04 07:36:03;;;;;;;6.80;3.30;;;;;;;2.03;100.00;100821.63;5062708;28;20386;-76
2021/03/04 07:39:07;;;;;;;7.57;2.88;;;;;;;2.06;100.00;100818.84;5075197;28;20047;-76
2021/03/04 07:42:19;;;;;;;16.63;4.20;;;;;;;2.10;100.00;100825.13;5062788;28;20055;-76
2021/03/04 07:45:23;;;;;;;11.15;3.67;;;;;;;2.15;100.00;100827.47;5062540;28;20040;-76
2021/03/04 07:48:26;;;;;;;30.13;6.03;;;;;;;2.22;100.00;100837.69;5074439;28;20104;-76
2021/03/04 07:51:41;;;;;;;18.38;4.95;;;;;;;2.27;100.00;100845.53;5062315;28;20389;-76
2021/03/04 07:54:50;;;;;;;6.25;2.17;;;;;;;2.28;100.00;100845.13;5060921;28;20406;-76
2021/03/04 07:57:53;;;;;;;14.80;5.53;;;;;;;2.32;100.00;100842.38;5061996;28;20047;-76
2021/03/04 08:00:57;;;;;;;4.43;2.65;;;;;;;2.35;100.00;100841.59;5062695;28;20052;-76
2021/03/04 08:04:01;;;;;;;4.45;2.25;;;;;;;2.36;100.00;100845.13;5074489;28;20046;-76
2021/03/04 08:07:04;;;;;;;11.15;2.20;;;;;;;2.39;100.00;100852.56;5062048;28;20055;-76
2021/03/04 08:10:08;;;;;;;20.88;3.78;;;;;;;2.41;100.00;100851.00;5062158;28;20393;-76
2021/03/04 08:13:12;;;;;;;9.10;2.70;;;;;;;2.42;100.00;100858.06;5061864;28;20051;-76
2021/03/04 08:16:17;;;;;;;13.07;2.63;;;;;;;2.46;100.00;100852.56;5074264;28;20048;-76
2021/03/04 08:19:28;;;;;;;5.78;2.70;;;;;;;2.55;100.00;100861.19;5061605;28;20051;-76
2021/03/04 08:22:33;;;;;;;5.53;2.25;;;;;;;2.65;100.00;100855.66;5041922;28;20051;-76
2021/03/04 08:25:37;;;;;;;13.02;4.03;;;;;;;2.74;100.00;100852.47;5041750;28;20039;-76
2021/03/04 08:28:41;;;;;;;5.05;2.15;;;;;;;2.84;100.00;100852.44;5054251;28;20052;-76
2021/03/04 08:31:47;;;;;;;9.15;3.30;;;;;;;2.93;100.00;100850.03;5054153;28;20051;-76
2021/03/04 08:34:51;;;;;;;11.73;3.42;;;;;;;3.03;100.00;100853.94;5053159;28;20504;-77
2021/03/04 08:38:01;;;;;;;14.85;3.47;;;;;;;3.07;100.00;100849.97;5040635;28;20044;-76
2021/03/04 08:41:05;;;;;;;18.85;5.68;;;;;;;3.19;100.00;100864.47;5063846;28;20040;-76
2021/03/04 08:44:17;;;;;;;15.85;3.47;;;;;;;3.21;100.00;100856.59;5052776;28;20040;-76
2021/03/04 08:47:20;;;;;;;4.97;2.75;;;;;;;3.27;100.00;100857.75;5058927;28;20114;-76
2021/03/04 08:50:37;;;;;;;9.70;2.92;;;;;;;3.39;100.00;100854.53;5059734;28;20048;-76
2021/03/04 08:53:40;;;;;;;3.78;1.30;;;;;;;3.44;100.00;100868.69;5059372;28;20043;-76
2021/03/04 08:56:58;;;;;;;12.98;2.58;;;;;;;3.48;100.00;100858.41;5083499;28;20052;-76
2021/03/04 09:00:02;;;;;;;14.25;1.92;;;;;;;3.49;100.00;100853.66;5060100;28;20058;-76
2021/03/04 09:03:07;;;;;;;4.22;2.17;;;;;;;3.49;100.00;100865.47;5060306;28;20067;-77
2021/03/04 09:06:17;;;;;;;9.20;1.60;;;;;;;3.45;100.00;100858.41;5059981;28;20047;-76
2021/03/04 09:09:26;;;;;;;3.55;1.70;;;;;;;3.46;100.00;100857.25;5084796;28;20378;-77
2021/03/04 09:12:29;;;;;;;10.63;2.90;;;;;;;3.47;100.00;100861.56;5072197;28;20047;-76
2021/03/04 09:15:33;;;;;;;12.85;2.38;;;;;;;3.50;100.00;100863.50;5072344;28;20067;-76
2021/03/04 09:18:46;;;;;;;3.50;1.80;;;;;;;3.53;100.00;100868.97;5082982;28;20055;-76
2021/03/04 09:21:50;;;;;;;7.50;2.08;;;;;;;3.56;100.00;100878.41;5060218;28;20504;-76
2021/03/04 09:24:54;;;;;;;4.32;1.55;;;;;;;3.59;100.00;100870.16;5072149;28;20055;-76
2021/03/04 09:27:58;;;;;;;12.55;2.67;;;;;;;3.63;100.00;100878.38;5072778;28;20055;-78
2021/03/04 09:31:13;;;;;;;2.50;1.63;;;;;;;3.71;100.00;100877.13;5072353;28;20063;-78
2021/03/04 09:34:17;;;;;;;7.63;2.00;;;;;;;3.76;100.00;100863.75;5071964;28;20052;-77
2021/03/04 09:37:26;;;;;;;3.60;1.10;;;;;;;3.80;100.00;100874.72;5072126;28;20047;-77
2021/03/04 09:40:30;;;;;;;5.82;1.98;;;;;;;3.84;100.00;100875.47;5071812;28;20090;-76
2021/03/04 09:43:59;;;;;;;2.47;0.98;;;;;;;3.82;100.00;100875.09;5082588;28;20040;-77
2021/03/04 09:47:02;;;;;;;4.20;1.85;;;;;;;3.74;100.00;100881.84;5073590;28;20044;-77
2021/03/04 09:50:21;;;;;;;8.40;2.53;;;;;;;3.66;100.00;100880.34;5060125;28;20047;-77
2021/03/04 09:53:25;;;;;;;5.05;1.52;;;;;;;3.63;100.00;100884.69;5040125;28;20076;-76
2021/03/04 09:56:29;;;;;;;8.25;1.67;;;;;;;3.63;100.00;100878.38;5039221;28;20056;-76
2021/03/04 09:59:45;;;;;;;1.95;0.82;;;;;;;3.74;100.00;100884.59;5039481;28;20052;-76
2021/03/04 10:02:49;;;;;;;6.85;1.63;;;;;;;3.90;100.00;100884.88;5051779;28;20048;-78
2021/03/04 10:05:53;;;;;;;4.50;0.93;;;;;;;4.09;100.00;100889.84;5039467;28;20048;-78
2021/03/04 10:08:56;;;;;;;4.55;0.82;;;;;;;4.24;100.00;100888.53;5039271;28;20052;-75
2021/03/04 10:12:03;;;;;;;0.75;0.30;;;;;;;4.38;100.00;100893.91;5052120;28;20059;-76
2021/03/04 10:15:07;;;;;;;1.13;0.45;;;;;;;4.49;100.00;100889.09;5039389;28;20040;-76
2021/03/04 10:18:12;;;;;;;3.50;1.35;;;;;;;4.59;100.00;100888.19;5041182;28;20410;-75
2021/03/04 10:21:19;;;;;;;3.10;0.57;;;;;;;4.63;100.00;100894.44;5043170;28;20060;-75
2021/03/04 10:24:22;;;;;;;4.00;0.35;;;;;;;4.57;100.00;100890.56;5055764;28;20477;-77
2021/03/04 10:27:25;;;;;;;2.15;0.63;;;;;;;4.54;100.00;100880.38;5043081;28;20163;-75
2021/03/04 10:30:30;;;;;;;9.18;1.08;;;;;;;4.55;100.00;100892.97;5055799;28;20052;-75
2021/03/04 10:33:34;;;;;;;1.02;0.55;;;;;;;4.54;100.00;100888.66;5043290;28;20397;-75
2021/03/04 10:36:37;;;;;;;2.55;0.95;;;;;;;4.58;100.00;100886.63;5042936;28;20052;-76
2021/03/04 10:39:40;;;;;;;3.95;1.27;;;;;;;4.63;100.00;100893.69;5055299;28;20059;-75
2021/03/04 10:42:44;;;;;;;0.75;0.20;;;;;;;4.66;100.00;100897.59;5042883;28;20048;-75
2021/03/04 10:45:48;;;;;;;0.90;0.45;;;;;;;4.67;100.00;100901.91;5043047;28;20044;-76
2021/03/04 10:48:51;;;;;;;3.03;0.93;;;;;;;4.63;100.00;100893.69;5055054;28;20056;-75
2021/03/04 10:51:55;;;;;;;1.10;0.65;;;;;;;4.56;100.00;100893.75;5054039;28;20508;-76
2021/03/04 10:54:59;;;;;;;1.30;0.55;;;;;;;4.48;100.00;100900.53;5062586;28;20393;-75
2021/03/04 10:58:03;;;;;;;1.23;1.02;;;;;;;4.44;100.00;100897.78;5074911;28;20048;-76
2021/03/04 11:01:06;;;;;;;3.25;1.17;;;;;;;4.50;100.00;100896.16;5074744;28;20515;-75
2021/03/04 11:04:10;;;;;;;5.63;1.58;;;;;;;4.61;100.00;100893.31;5062518;28;20043;-76
2021/03/04 11:07:14;;;;;;;1.33;1.15;;;;;;;4.74;100.00;100891.59;5062514;28;20047;-77
2021/03/04 11:10:18;;;;;;;3.05;0.80;;;;;;;4.77;100.00;100899.03;5062133;28;20102;-77
2021/03/04 11:13:21;;;;;;;1.08;0.75;;;;;;;4.79;100.00;100895.88;5062274;28;20047;-78
2021/03/04 11:16:25;;;;;;;2.13;1.10;;;;;;;4.78;100.00;100899.84;5061941;28;20055;-77
2021/03/04 11:19:28;;;;;;;2.90;0.80;;;;;;;4.76;100.00;100913.25;5061965;28;20047;-76
2021/03/04 11:22:32;;;;;;;2.78;1.35;;;;;;;4.88;100.00;100907.19;5062033;28;20063;-77
2021/03/04 11:25:36;;;;;;;1.48;0.77;;;;;;;5.17;100.00;100900.16;5061811;28;20499;-77
2021/03/04 11:28:39;;;;;;;3.45;1.38;;;;;;;5.25;100.00;100904.41;5061466;28;20047;-77
2021/03/04 11:31:43;;;;;;;1.27;0.95;;;;;;;5.23;100.00;100906.78;5074292;28;20500;-78
2021/03/04 11:34:46;;;;;;;1.63;0.55;;;;;;;5.15;100.00;100916.38;5061697;28;20048;-77
2021/03/04 11:37:50;;;;;;;2.83;1.00;;;;;;;5.07;100.00;100909.34;5061731;28;20059;-77
2021/03/04 11:40:53;;;;;;;4.40;1.33;;;;;;;5.05;100.00;100914.50;5074160;28;20047;-77
2021/03/04 11:43:56;;;;;;;5.53;0.57;;;;;;;5.08;100.00;100908.16;5061668;28;20394;-76
2021/03/04 11:47:00;;;;;;;2.92;0.90;;;;;;;5.21;100.00;100909.19;5074355;28;20068;-77
2021/03/04 11:50:04;;;;;;;5.93;1.65;;;;;;;5.34;100.00;100905.47;5061886;28;20540;-77
2021/03/04 11:53:08;;;;;;;7.57;1.70;;;;;;;5.45;100.00;100908.09;5061565;28;20048;-77
2021/03/04 11:56:12;;;;;;;4.53;1.88;;;;;;;5.44;100.00;100914.78;5074231;28;20394;-77
2021/03/04 11:59:16;;;;;;;1.15;0.95;;;;;;;5.47;100.00;100908.44;5061620;28;20393;-77
2021/03/04 12:02:19;;;;;;;1.83;0.85;;;;;;;5.53;100.00;100911.53;5063069;28;20151;-77
2021/03/04 12:05:23;;;;;;;3.05;0.70;;;;;;;5.71;100.00;100904.56;5063347;28;20051;-77
2021/03/04 12:08:27;;;;;;;13.27;1.67;;;;;;;5.73;100.00;100910.47;5074783;28;20048;-78
2021/03/04 12:11:30;;;;;;;4.00;1.20;;;;;;;5.67;100.00;100912.13;5061688;28;20054;-77
2021/03/04 12:14:34;;;;;;;0.75;0.65;;;;;;;5.62;100.00;100915.34;5074110;28;20051;-77
2021/03/04 12:17:38;;;;;;;2.45;1.05;;;;;;;5.54;100.00;100908.38;5073451;28;20052;-78
2021/03/04 12:20:41;;;;;;;3.88;1.63;;;;;;;5.49;100.00;100908.03;5061147;28;20044;-78
2021/03/04 12:23:45;;;;;;;2.88;0.82;;;;;;;5.41;100.00;100903.81;5061229;28;20039;-76
2021/03/04 12:26:49;;;;;;;1.02;0.85;;;;;;;5.30;100.00;100899.22;5061085;28;20063;-76
2021/03/04 12:29:52;;;;;;;2.30;0.90;;;;;;;5.22;100.00;100905.22;5061632;28;20047;-75
2021/03/04 12:32:56;;;;;;;2.28;0.63;;;;;;;5.18;100.00;100907.25;5061149;28;20508;-76
2021/03/04 12:35:59;;;;;;;5.68;1.38;;;;;;;5.17;100.00;100902.94;5061320;28;20059;-76
2021/03/04 12:39:04;;;;;;;6.00;1.17;;;;;;;5.18;100.00;100890.66;5060918;28;20048;-77
2021/03/04 12:42:08;;;;;;;2.67;1.30;;;;;;;5.25;100.00;100893.34;5060758;28;20047;-77
2021/03/04 12:45:12;;;;;;;3.72;0.90;;;;;;;5.28;100.00;100887.00;5060211;28;20047;-76
2021/03/04 12:48:16;;;;;;;4.70;1.50;;;;;;;5.28;100.00;100879.50;5060968;28;20051;-74
2021/03/04 12:51:20;;;;;;;9.07;0.60;;;;;;;5.29;100.00;100883.81;5072742;28;20044;-74
2021/03/04 12:54:23;;;;;;;4.72;1.42;;;;;;;5.36;100.00;100877.44;5060226;28;20512;-77
2021/03/04 12:57:27;;;;;;;2.95;1.60;;;;;;;5.58;100.00;100875.16;5060508;28;20048;-77
2021/03/04 13:00:30;;;;;;;2.00;1.17;;;;;;;5.74;100.00;100872.56;5060900;28;20044;-77
2021/03/04 13:03:33;;;;;;;6.13;2.15;;;;;;;5.88;100.00;100875.91;5060158;28;20055;-77
2021/03/04 13:06:37;;;;;;;1.83;0.88;;;;;;;5.83;100.00;100870.81;5060320;28;20047;-74
2021/03/04 13:09:40;;;;;;;2.10;1.23;;;;;;;5.67;100.00;100873.44;5059946;28;20059;-77
2021/03/04 13:12:44;;;;;;;0.30;0.30;;;;;;;5.60;100.00;100867.22;5060385;28;20095;-76
2021/03/04 13:15:47;;;;;;;2.25;1.00;;;;;;;5.64;100.00;100868.75;5059973;28;20429;-76
2021/03/04 13:18:51;;;;;;;3.30;1.23;;;;;;;5.64;100.00;100868.75;5072266;28;20052;-76
2021/03/04 13:21:56;;;;;;;0.85;0.57;;;;;;;5.67;100.00;100872.66;5060431;28;20460;-76
2021/03/04 13:24:59;;;;;;;1.85;1.30;;;;;;;5.82;100.00;100869.25;5060248;28;20044;-76
2021/03/04 13:28:03;;;;;;;1.38;1.02;;;;;;;6.05;100.00;100863.78;5059644;28;20103;-76
2021/03/04 13:31:07;;;;;;;4.78;1.15;;;;;;;6.30;100.00;100859.81;5059951;28;20508;-77
2021/03/04 13:34:10;;;;;;;3.38;1.30;;;;;;;6.43;100.00;100852.47;5059857;28;20051;-76
2021/03/04 13:37:16;;;;;;;1.75;1.17;;;;;;;6.55;100.00;100854.59;5072041;28;20051;-76
2021/03/04 13:40:21;;;;;;;5.47;1.10;;;;;;;6.62;100.00;100862.78;5071257;28;20063;-76
2021/03/04 13:43:26;;;;;;;0.73;0.73;;;;;;;6.59;100.00;100849.78;5070787;28;20059;-76
2021/03/04 13:46:30;;;;;;;0.68;0.38;;;;;;;6.44;100.00;100865.88;5070876;28;20040;-76
2021/03/04 13:49:33;;;;;;;5.18;0.73;;;;;;;6.31;100.00;100853.84;5072333;28;20051;-76
2021/03/04 13:52:37;;;;;;;1.33;0.57;;;;;;;6.29;100.00;100863.78;5059231;28;20051;-77
2021/03/04 13:55:40;;;;;;;4.18;0.95;;;;;;;6.35;100.00;100860.09;5072446;28;20081;-76
2021/03/04 13:58:44;;;;;;;0.30;0.30;;;;;;;6.40;100.00;100859.63;5059464;28;20096;-76
2021/03/04 14:01:47;;;;;;;0.30;0.30;;;;;;;6.44;100.00;100854.00;5061139;28;20052;-83
2021/03/04 14:04:51;;;;;;;0.85;0.82;;;;;;;6.48;100.00;100861.03;5061945;28;20039;-84
2021/03/04 14:07:54;;;;;;;0.65;0.65;;;;;;;6.46;100.00;100854.38;5061573;28;20048;-84
2021/03/04 14:10:57;;;;;;;1.70;0.88;;;;;;;6.46;100.00;100868.19;5067413;28;20028;-82
2021/03/04 14:14:01;;;;;;;0.68;0.68;;;;;;;6.52;100.00;100861.00;5075385;28;20035;-83
2021/03/04 14:17:04;;;;;;;1.15;0.32;;;;;;;6.75;100.00;100863.72;5073856;28;20048;-83